createdAt,value
2023-05-15T00:01:14.079Z,3.80
2023-05-15T00:06:15.742Z,4.47
2023-05-15T00:11:17.498Z,3.28
2023-05-15T00:16:19.372Z,3.70
2023-05-15T00:21:21.081Z,3.35
2023-05-15T00:26:23.379Z,4.40
2023-05-15T00:31:25.075Z,3.72
2023-05-15T00:36:26.749Z,3.60
2023-05-15T00:41:32.172Z,3.78
2023-05-15T00:46:35.690Z,4.05
2023-05-15T00:51:37.485Z,3.28
2023-05-15T00:56:40.284Z,3.72
2023-05-15T01:01:45.134Z,3.40
2023-05-15T01:06:48.760Z,4.10
2023-05-15T01:11:53.471Z,3.67
2023-05-15T01:16:55.141Z,4.25
2023-05-15T01:22:18.020Z,3.97
2023-05-15T01:27:32.189Z,4.93
2023-05-15T01:32:39.854Z,5.28
2023-05-15T01:37:45.533Z,4.88
2023-05-15T01:42:56.145Z,5.63
2023-05-15T01:48:00.639Z,4.78
2023-05-15T01:53:03.804Z,4.70
2023-05-15T01:58:05.510Z,5.05
2023-05-15T02:03:07.460Z,5.10
2023-05-15T02:08:09.794Z,5.45
2023-05-15T02:13:12.638Z,6.22
2023-05-15T02:18:14.306Z,5.30
2023-05-15T02:23:16.013Z,5.70
2023-05-15T02:28:24.289Z,5.78
2023-05-15T02:33:39.506Z,4.63
2023-05-15T02:38:47.162Z,5.35
2023-05-15T02:43:51.879Z,5.03
2023-05-15T02:48:54.835Z,5.03
2023-05-15T02:53:56.496Z,5.65
2023-05-15T02:58:58.170Z,5.75
2023-05-15T03:03:59.835Z,5.78
2023-05-15T03:09:01.540Z,5.82
2023-05-15T03:14:03.344Z,5.95
2023-05-15T03:19:05.462Z,6.00
2023-05-15T03:24:07.421Z,5.70
2023-05-15T03:29:09.090Z,5.88
2023-05-15T03:34:10.948Z,6.00
2023-05-15T03:39:12.632Z,6.53
2023-05-15T03:44:14.297Z,6.07
2023-05-15T03:49:16.015Z,5.70
2023-05-15T03:54:17.696Z,6.03
2023-05-15T03:59:19.260Z,5.50
2023-05-15T04:04:20.850Z,5.57
2023-05-15T04:09:22.463Z,5.00
2023-05-15T04:14:24.070Z,5.45
2023-05-15T04:19:25.705Z,4.75
2023-05-15T04:24:27.310Z,5.07
2023-05-15T04:29:28.910Z,5.10
2023-05-15T04:34:30.572Z,4.95
2023-05-15T04:39:32.241Z,6.15
2023-05-15T04:44:34.076Z,5.57
2023-05-15T04:49:35.694Z,4.95
2023-05-15T04:54:37.301Z,6.63
2023-05-15T04:59:38.954Z,4.57
2023-05-15T05:04:45.638Z,6.05
2023-05-15T05:09:47.348Z,7.07
2023-05-15T05:14:49.323Z,7.03
2023-05-15T05:19:51.011Z,7.47
2023-05-15T05:24:52.674Z,6.47
2023-05-15T05:29:54.378Z,5.60
2023-05-15T05:34:56.011Z,3.70
2023-05-15T05:39:57.671Z,3.92
2023-05-15T05:44:59.266Z,3.58
2023-05-15T05:50:01.086Z,3.63
2023-05-15T05:55:03.152Z,3.45
2023-05-15T06:00:10.545Z,3.50
2023-05-15T06:05:13.523Z,3.00
2023-05-15T06:10:15.676Z,3.42
2023-05-15T06:15:17.473Z,3.67
2023-05-15T06:20:19.131Z,4.50
2023-05-15T06:25:21.007Z,3.97
2023-05-15T06:30:23.018Z,4.90
2023-05-15T06:35:24.820Z,4.55
2023-05-15T06:40:26.636Z,4.57
2023-05-15T06:45:28.749Z,4.70
2023-05-15T06:50:30.667Z,4.78
2023-05-15T06:55:34.154Z,4.40
2023-05-15T07:00:35.754Z,4.70
2023-05-15T07:05:37.347Z,4.82
2023-05-15T07:10:38.962Z,5.20
2023-05-15T07:15:40.579Z,4.45
2023-05-15T07:20:42.452Z,4.25
2023-05-15T07:25:45.300Z,4.40
2023-05-15T07:30:47.769Z,4.85
2023-05-15T07:35:50.816Z,5.25
2023-05-15T07:40:52.462Z,4.75
2023-05-15T07:45:54.182Z,5.13
2023-05-15T07:50:57.075Z,4.88
2023-05-15T07:55:59.384Z,4.97
2023-05-15T08:01:01.140Z,4.85
2023-05-15T08:06:02.926Z,5.30
2023-05-15T08:11:04.640Z,5.45
2023-05-15T08:16:06.501Z,5.00
2023-05-15T08:21:08.302Z,4.93
2023-05-15T08:26:09.937Z,5.65
2023-05-15T08:31:11.671Z,5.90
2023-05-15T08:36:14.155Z,5.10
2023-05-15T08:41:40.110Z,5.20
2023-05-15T08:46:43.427Z,4.82
2023-05-15T08:51:45.597Z,5.35
2023-05-15T08:56:47.548Z,5.63
2023-05-15T09:01:49.869Z,5.55
2023-05-15T09:06:52.720Z,5.53
2023-05-15T09:11:54.678Z,5.75
2023-05-15T09:16:56.636Z,6.43
2023-05-15T09:22:16.422Z,6.30
2023-05-15T09:27:19.007Z,6.50
2023-05-15T09:32:20.689Z,5.75
2023-05-15T09:37:32.875Z,6.15
2023-05-15T09:42:35.305Z,7.00
2023-05-15T09:47:37.238Z,6.45
2023-05-15T09:52:39.308Z,6.05
2023-05-15T09:57:41.192Z,5.53
2023-05-15T10:02:42.923Z,5.80
2023-05-15T10:07:44.595Z,5.72
2023-05-15T10:12:48.337Z,5.40
2023-05-15T10:17:52.405Z,5.90
2023-05-15T10:22:56.261Z,5.38
2023-05-15T10:27:58.123Z,5.30
2023-05-15T10:33:01.034Z,4.93
2023-05-15T10:38:05.564Z,4.45
2023-05-15T10:43:10.276Z,4.60
2023-05-15T10:48:14.041Z,3.45
2023-05-15T10:53:16.240Z,3.60
2023-05-15T10:58:21.710Z,3.70
2023-05-15T11:03:48.171Z,3.13
2023-05-15T11:08:51.317Z,3.80
2023-05-15T11:14:05.424Z,5.10
2023-05-15T11:19:21.827Z,4.75
2023-05-15T11:24:58.720Z,4.45
2023-05-15T11:30:08.071Z,4.78
2023-05-15T11:35:11.469Z,4.88
2023-05-15T11:40:25.798Z,5.70
2023-05-15T11:45:40.092Z,5.63
2023-05-15T11:50:42.770Z,5.20
2023-05-15T11:55:44.716Z,9.00
2023-05-15T12:00:47.983Z,6.25
2023-05-15T12:05:58.342Z,6.18
2023-05-15T12:11:02.810Z,5.63
2023-05-15T12:16:05.040Z,6.05
2023-05-15T12:21:06.800Z,5.05
2023-05-15T12:26:08.520Z,5.10
2023-05-15T12:31:11.660Z,4.97
2023-05-15T12:36:13.314Z,4.93
2023-05-15T12:41:15.056Z,4.97
2023-05-15T12:46:21.807Z,4.32
2023-05-15T12:51:23.534Z,4.45
2023-05-15T12:56:26.222Z,4.25
2023-05-15T13:01:28.951Z,5.30
2023-05-15T13:06:44.881Z,4.20
2023-05-15T13:11:47.704Z,2.75
2023-05-15T13:16:49.338Z,2.22
2023-05-15T13:21:51.039Z,2.13
2023-05-15T13:26:52.931Z,2.10
2023-05-15T13:31:54.642Z,1.98
2023-05-15T13:36:56.226Z,4.50
2023-05-15T13:41:58.514Z,3.85
2023-05-15T13:47:04.290Z,3.65
2023-05-15T13:52:06.372Z,3.50
2023-05-15T13:57:07.983Z,3.90
2023-05-15T14:02:09.564Z,4.38
2023-05-15T14:07:11.248Z,4.15
2023-05-15T14:12:12.986Z,4.05
2023-05-15T14:17:15.112Z,3.40
2023-05-15T14:22:16.713Z,4.28
2023-05-15T14:27:18.339Z,4.05
2023-05-15T14:32:20.107Z,3.92
2023-05-15T14:37:21.791Z,4.25
2023-05-15T14:42:23.560Z,3.97
2023-05-15T14:47:27.838Z,4.05
2023-05-15T14:52:29.578Z,4.18
2023-05-15T14:57:31.159Z,4.20
2023-05-15T15:02:33.010Z,3.72
2023-05-15T15:08:04.825Z,2.95
2023-05-15T15:13:07.805Z,2.60
2023-05-15T15:18:09.505Z,2.85
2023-05-15T15:23:11.109Z,2.40
2023-05-15T15:28:12.986Z,2.40
2023-05-15T15:33:14.579Z,2.28
2023-05-15T15:38:16.344Z,1.90
2023-05-15T15:43:17.960Z,2.22
2023-05-15T15:48:20.757Z,2.38
2023-05-15T15:53:22.931Z,3.15
2023-05-15T15:58:24.845Z,3.28
2023-05-15T16:03:26.647Z,3.50
2023-05-15T16:08:28.999Z,4.05
2023-05-15T16:13:30.659Z,4.47
2023-05-15T16:18:32.367Z,4.80
2023-05-15T16:23:35.466Z,4.50
2023-05-15T16:28:37.466Z,3.88
2023-05-15T16:33:39.202Z,6.78
2023-05-15T16:38:40.950Z,4.13
2023-05-15T16:43:42.630Z,3.47
2023-05-15T16:48:44.465Z,3.80
2023-05-15T16:53:47.068Z,2.65
2023-05-15T16:58:48.771Z,3.30
2023-05-15T17:03:50.843Z,4.03
2023-05-15T17:08:52.836Z,4.47
2023-05-15T17:13:54.514Z,4.72
2023-05-15T17:18:56.450Z,5.10
2023-05-15T17:23:58.278Z,4.65
2023-05-15T17:29:00.610Z,4.82
2023-05-15T17:34:02.285Z,4.60
2023-05-15T17:39:03.936Z,4.60
2023-05-15T17:44:05.794Z,4.20
2023-05-15T17:49:07.549Z,4.07
2023-05-15T17:54:09.193Z,4.15
2023-05-15T17:59:10.957Z,4.38
2023-05-15T18:04:27.561Z,3.60
2023-05-15T18:14:31.289Z,2.60
2023-05-15T18:19:33.224Z,3.08
2023-05-15T18:24:34.934Z,3.20
2023-05-15T18:29:36.615Z,3.80
2023-05-15T18:34:38.200Z,4.70
2023-05-15T18:39:40.006Z,4.65
2023-05-15T18:44:41.915Z,4.30
2023-05-15T18:49:43.785Z,4.10
2023-05-15T18:54:45.591Z,4.38
2023-05-15T18:59:48.127Z,4.35
2023-05-15T19:04:49.888Z,4.35
2023-05-15T19:09:51.742Z,4.18
2023-05-15T19:14:53.437Z,5.28
2023-05-15T19:19:55.255Z,4.65
2023-05-15T19:24:56.947Z,4.82
2023-05-15T19:29:58.990Z,4.22
2023-05-15T19:35:00.583Z,4.15
2023-05-15T19:40:02.299Z,4.00
2023-05-15T19:45:04.353Z,5.30
2023-05-15T19:50:06.753Z,4.75
2023-05-15T19:55:08.983Z,5.85
2023-05-15T20:00:12.349Z,6.00
2023-05-15T20:05:15.500Z,6.35
2023-05-15T20:10:18.972Z,6.93
2023-05-15T20:15:20.651Z,5.20
2023-05-15T20:20:23.005Z,5.07
2023-05-15T20:25:27.481Z,4.90
2023-05-15T20:30:29.641Z,4.53
2023-05-15T20:35:32.098Z,5.03
2023-05-15T20:40:33.721Z,3.67
2023-05-15T20:45:35.484Z,3.65
2023-05-15T20:50:37.458Z,3.67
2023-05-15T20:55:39.083Z,4.10
2023-05-15T21:00:40.690Z,3.63
2023-05-15T21:05:42.312Z,3.55
2023-05-15T21:10:44.089Z,4.03
2023-05-15T21:15:45.701Z,4.18
2023-05-15T21:20:47.339Z,3.95
2023-05-15T21:25:49.000Z,3.78
2023-05-15T21:30:50.671Z,4.38
2023-05-15T21:35:52.727Z,3.95
2023-05-15T21:40:54.310Z,4.63
2023-05-15T21:45:57.004Z,5.13
2023-05-15T21:50:58.751Z,4.72
2023-05-15T21:56:01.789Z,5.00
2023-05-15T22:01:03.492Z,5.00
2023-05-15T22:06:05.180Z,5.13
2023-05-15T22:11:07.333Z,4.90
2023-05-15T22:16:09.539Z,4.90
2023-05-15T22:21:11.401Z,5.90
2023-05-15T22:26:13.089Z,5.25
2023-05-15T22:31:14.707Z,5.40
2023-05-15T22:36:16.495Z,5.43
2023-05-15T22:41:18.255Z,5.68
2023-05-15T22:46:19.918Z,6.07
2023-05-15T22:51:22.288Z,6.20
2023-05-15T22:56:24.031Z,5.75
2023-05-15T23:01:25.949Z,5.80
2023-05-15T23:06:27.692Z,5.68
2023-05-15T23:11:29.313Z,6.25
2023-05-15T23:16:31.186Z,6.10
2023-05-15T23:21:32.966Z,6.65
2023-05-15T23:26:34.601Z,6.57
2023-05-15T23:31:36.238Z,6.80
2023-05-15T23:36:37.947Z,6.80
2023-05-15T23:41:39.532Z,6.72
2023-05-15T23:46:41.171Z,6.70
2023-05-15T23:51:43.674Z,6.95
2023-05-15T23:56:45.358Z,7.35
